createdAt,value
2023-02-05T00:01:04.585Z,-3.05
2023-02-05T00:03:35.367Z,-3.11
2023-02-05T00:06:04.543Z,-3.11
2023-02-05T00:08:34.081Z,-3.11
2023-02-05T00:11:09.387Z,-3.12
2023-02-05T00:13:41.258Z,-3.13
2023-02-05T00:16:10.962Z,-3.13
2023-02-05T00:18:40.128Z,-3.14
2023-02-05T00:21:09.535Z,-3.16
2023-02-05T00:23:38.882Z,-3.17
2023-02-05T00:26:08.943Z,-3.20
2023-02-05T00:28:40.023Z,-3.22
2023-02-05T00:31:11.050Z,-3.24
2023-02-05T00:33:40.284Z,-3.25
2023-02-05T00:36:12.439Z,-3.25
2023-02-05T00:38:42.795Z,-3.35
2023-02-05T00:41:12.752Z,-3.32
2023-02-05T00:43:44.129Z,-3.33
2023-02-05T00:46:14.580Z,-3.38
2023-02-05T00:48:45.100Z,-3.43
2023-02-05T00:51:14.530Z,-3.47
2023-02-05T00:53:43.534Z,-3.45
2023-02-05T00:56:12.614Z,-3.48
2023-02-05T00:58:47.729Z,-3.39
2023-02-05T01:01:17.394Z,-3.42
2023-02-05T01:03:46.456Z,-3.40
2023-02-05T01:06:15.712Z,-3.39
2023-02-05T01:08:44.742Z,-3.41
2023-02-05T01:11:15.141Z,-3.36
2023-02-05T01:13:45.555Z,-3.38
2023-02-05T01:16:14.572Z,-3.42
2023-02-05T01:18:43.656Z,-3.41
2023-02-05T01:21:12.904Z,-3.36
2023-02-05T01:23:42.136Z,-3.37
2023-02-05T01:26:11.172Z,-3.37
2023-02-05T01:28:40.160Z,-3.34
2023-02-05T01:31:11.243Z,-3.34
2023-02-05T01:33:40.308Z,-3.33
2023-02-05T01:36:10.018Z,-3.36
2023-02-05T01:38:38.991Z,-3.36
2023-02-05T01:41:10.070Z,-3.35
2023-02-05T01:43:39.156Z,-3.35
2023-02-05T01:46:27.215Z,-3.34
2023-02-05T01:49:00.440Z,-3.40
2023-02-05T01:51:31.639Z,-3.41
2023-02-05T01:54:01.370Z,-3.42
2023-02-05T01:56:34.339Z,-3.45
2023-02-05T01:59:09.541Z,-3.42
2023-02-05T02:01:41.139Z,-3.37
2023-02-05T02:04:12.819Z,-3.36
2023-02-05T02:06:42.188Z,-3.37
2023-02-05T02:09:12.396Z,-3.39
2023-02-05T02:11:44.453Z,-3.44
2023-02-05T02:14:14.702Z,-3.46
2023-02-05T02:16:45.535Z,-3.50
2023-02-05T02:19:23.142Z,-3.49
2023-02-05T02:22:28.106Z,-3.47
2023-02-05T02:25:31.682Z,-3.50
2023-02-05T02:28:05.611Z,-3.51
2023-02-05T02:30:38.347Z,-3.55
2023-02-05T02:33:10.741Z,-3.54
2023-02-05T02:35:48.122Z,-3.60
2023-02-05T02:38:23.370Z,-3.60
2023-02-05T02:40:55.916Z,-3.61
2023-02-05T02:43:36.148Z,-3.65
2023-02-05T02:46:09.379Z,-3.62
2023-02-05T02:48:41.062Z,-3.68
2023-02-05T02:51:13.657Z,-3.66
2023-02-05T02:53:47.559Z,-3.67
2023-02-05T02:56:19.384Z,-3.68
2023-02-05T02:58:54.504Z,-3.69
2023-02-05T03:01:29.599Z,-3.65
2023-02-05T03:04:01.863Z,-3.64
2023-02-05T03:06:33.023Z,-3.68
2023-02-05T03:09:07.209Z,-3.69
2023-02-05T03:11:36.440Z,-3.67
2023-02-05T03:14:07.062Z,-3.68
2023-02-05T03:16:39.697Z,-3.65
2023-02-05T03:19:09.568Z,-3.65
2023-02-05T03:21:43.274Z,-3.67
2023-02-05T03:24:12.898Z,-3.67
2023-02-05T03:26:42.322Z,-3.67
2023-02-05T03:29:28.809Z,-3.70
2023-02-05T03:32:13.520Z,-3.71
2023-02-05T03:34:56.927Z,-3.67
2023-02-05T03:37:34.125Z,-3.68
2023-02-05T03:40:15.798Z,-3.68
2023-02-05T03:43:02.019Z,-3.69
2023-02-05T03:45:44.790Z,-3.66
2023-02-05T03:48:29.568Z,-3.65
2023-02-05T03:51:09.109Z,-3.65
2023-02-05T03:53:46.490Z,-3.67
2023-02-05T03:56:20.837Z,-3.71
2023-02-05T03:58:54.236Z,-3.75
2023-02-05T04:01:26.190Z,-3.74
2023-02-05T04:03:55.419Z,-3.77
2023-02-05T04:06:25.647Z,-3.73
2023-02-05T04:08:55.981Z,-3.74
2023-02-05T04:11:25.761Z,-3.76
2023-02-05T04:13:55.829Z,-3.77
2023-02-05T04:16:27.059Z,-3.83
2023-02-05T04:18:56.524Z,-3.88
2023-02-05T04:21:26.184Z,-3.86
2023-02-05T04:23:55.567Z,-3.91
2023-02-05T04:26:24.568Z,-3.96
2023-02-05T04:29:01.884Z,-3.96
2023-02-05T04:31:35.031Z,-4.01
2023-02-05T04:34:04.720Z,-4.03
2023-02-05T04:36:33.695Z,-4.05
2023-02-05T04:39:04.468Z,-4.08
2023-02-05T04:41:33.669Z,-4.10
2023-02-05T04:44:02.675Z,-4.09
2023-02-05T04:46:31.753Z,-4.12
2023-02-05T04:49:02.433Z,-4.14
2023-02-05T04:51:31.463Z,-4.13
2023-02-05T04:54:00.469Z,-4.14
2023-02-05T04:56:29.552Z,-4.15
2023-02-05T04:58:58.504Z,-4.15
2023-02-05T05:01:27.598Z,-4.15
2023-02-05T05:03:56.703Z,-4.17
2023-02-05T05:06:27.190Z,-4.14
2023-02-05T05:08:56.126Z,-4.11
2023-02-05T05:11:25.998Z,-4.09
2023-02-05T05:13:54.943Z,-4.10
2023-02-05T05:16:23.970Z,-4.10
2023-02-05T05:18:53.124Z,-4.08
2023-02-05T05:21:22.097Z,-4.05
2023-02-05T05:23:52.498Z,-4.04
2023-02-05T05:26:21.640Z,-4.03
2023-02-05T05:28:54.585Z,-4.02
2023-02-05T05:31:24.530Z,-4.00
2023-02-05T05:33:53.866Z,-4.01
2023-02-05T05:36:22.927Z,-4.00
2023-02-05T05:38:53.300Z,-4.02
2023-02-05T05:41:49.956Z,-4.03
2023-02-05T05:44:19.018Z,-4.04
2023-02-05T05:46:48.100Z,-4.04
2023-02-05T05:49:17.632Z,-4.01
2023-02-05T05:51:46.616Z,-3.99
2023-02-05T05:54:17.063Z,-3.94
2023-02-05T05:56:46.281Z,-3.87
2023-02-05T05:59:15.263Z,-3.86
2023-02-05T06:01:44.311Z,-3.82
2023-02-05T06:04:13.323Z,-3.76
2023-02-05T06:06:42.772Z,-3.79
2023-02-05T06:09:12.091Z,-3.80
2023-02-05T06:11:42.452Z,-3.80
2023-02-05T06:14:11.394Z,-3.71
2023-02-05T06:16:41.747Z,-3.66
2023-02-05T06:19:10.751Z,-3.63
2023-02-05T06:21:39.733Z,-3.61
2023-02-05T06:24:08.941Z,-3.44
2023-02-05T06:26:37.930Z,-3.33
2023-02-05T06:29:08.382Z,-3.27
2023-02-05T06:31:37.701Z,-3.10
2023-02-05T06:34:06.767Z,-3.03
2023-02-05T06:36:35.724Z,-3.20
2023-02-05T06:39:04.767Z,-3.19
2023-02-05T06:41:33.769Z,-3.21
2023-02-05T06:44:04.065Z,-3.15
2023-02-05T06:46:34.545Z,-3.07
2023-02-05T06:49:03.492Z,-3.12
2023-02-05T06:51:32.586Z,-3.04
2023-02-05T06:54:01.997Z,-3.05
2023-02-05T06:56:31.081Z,-3.11
2023-02-05T06:59:00.207Z,-3.08
2023-02-05T07:01:29.181Z,-3.00
2023-02-05T07:03:59.600Z,-3.06
2023-02-05T07:06:29.212Z,-3.13
2023-02-05T07:08:59.581Z,-3.20
2023-02-05T07:11:28.569Z,-3.04
2023-02-05T07:13:57.738Z,-3.01
2023-02-05T07:16:26.858Z,-3.00
2023-02-05T07:18:55.881Z,-2.79
2023-02-05T07:21:27.269Z,-2.54
2023-02-05T07:23:56.480Z,-2.44
2023-02-05T07:26:25.566Z,-2.34
2023-02-05T07:28:54.714Z,-2.34
2023-02-05T07:31:23.895Z,-2.31
2023-02-05T07:33:52.906Z,-2.18
2023-02-05T07:36:22.443Z,-2.37
2023-02-05T07:38:52.948Z,-2.37
2023-02-05T07:41:22.044Z,-2.43
2023-02-05T07:43:52.948Z,-2.56
2023-02-05T07:46:23.469Z,-2.52
2023-02-05T07:48:53.416Z,-2.53
2023-02-05T07:51:24.227Z,-2.52
2023-02-05T07:53:54.646Z,-2.40
2023-02-05T07:56:25.931Z,-2.43
2023-02-05T07:58:55.098Z,-2.52
2023-02-05T08:01:24.114Z,-2.58
2023-02-05T08:03:53.159Z,-2.37
2023-02-05T08:06:22.182Z,-2.33
2023-02-05T08:08:51.973Z,-2.24
2023-02-05T08:11:22.821Z,-2.29
2023-02-05T08:13:51.857Z,-2.35
2023-02-05T08:16:20.888Z,-2.32
2023-02-05T08:18:51.701Z,-2.18
2023-02-05T08:21:22.095Z,-2.28
2023-02-05T08:23:51.245Z,-2.22
2023-02-05T08:26:21.956Z,-2.12
2023-02-05T08:28:51.062Z,-2.14
2023-02-05T08:31:20.684Z,-1.98
2023-02-05T08:33:50.955Z,-1.98
2023-02-05T08:36:20.167Z,-2.01
2023-02-05T08:38:49.579Z,-2.15
2023-02-05T08:41:18.815Z,-2.17
2023-02-05T08:43:51.510Z,-2.07
2023-02-05T08:46:22.301Z,-2.02
2023-02-05T08:48:52.441Z,-1.84
2023-02-05T08:51:23.218Z,-1.65
2023-02-05T08:53:53.605Z,-1.40
2023-02-05T08:56:23.059Z,-1.47
2023-02-05T08:58:53.573Z,-1.52
2023-02-05T09:01:22.679Z,-1.59
2023-02-05T09:03:51.859Z,-1.83
2023-02-05T09:06:21.084Z,-1.89
2023-02-05T09:08:50.040Z,-1.75
2023-02-05T09:11:22.499Z,-1.92
2023-02-05T09:13:54.404Z,-1.71
2023-02-05T09:16:23.499Z,-1.36
2023-02-05T09:18:52.580Z,-1.31
2023-02-05T09:21:21.892Z,-1.59
2023-02-05T09:23:50.965Z,-1.86
2023-02-05T09:26:20.159Z,-1.93
2023-02-05T09:28:49.309Z,-1.89
2023-02-05T09:31:21.194Z,-1.86
2023-02-05T09:33:50.433Z,-1.90
2023-02-05T09:36:21.742Z,-1.89
2023-02-05T09:39:01.986Z,-1.88
2023-02-05T09:41:46.263Z,-1.96
2023-02-05T09:44:23.518Z,-2.12
2023-02-05T09:47:03.242Z,-2.26
2023-02-05T09:49:36.567Z,-2.25
2023-02-05T09:52:12.160Z,-2.32
2023-02-05T09:54:45.427Z,-2.26
2023-02-05T09:57:21.526Z,-2.07
2023-02-05T09:59:50.565Z,-1.94
2023-02-05T10:02:28.815Z,-1.78
2023-02-05T10:04:57.852Z,-1.81
2023-02-05T10:07:36.995Z,-1.32
2023-02-05T10:10:24.143Z,-0.96
2023-02-05T10:13:24.408Z,-0.85
2023-02-05T10:16:20.208Z,-0.88
2023-02-05T10:18:56.673Z,-0.66
2023-02-05T10:21:43.484Z,-0.91
2023-02-05T10:24:31.057Z,-0.80
2023-02-05T10:27:07.769Z,-0.75
2023-02-05T10:29:44.325Z,-0.80
2023-02-05T10:32:23.004Z,-1.13
2023-02-05T10:34:59.708Z,-1.35
2023-02-05T10:37:39.635Z,-1.31
2023-02-05T10:40:15.728Z,-1.17
2023-02-05T10:42:49.550Z,-0.91
2023-02-05T10:45:22.449Z,-0.94
2023-02-05T10:48:03.944Z,-1.04
2023-02-05T10:50:46.565Z,-0.99
2023-02-05T10:53:19.364Z,-0.90
2023-02-05T10:55:48.931Z,-0.76
2023-02-05T10:58:38.208Z,-0.61
2023-02-05T11:01:09.184Z,-0.99
2023-02-05T11:03:40.109Z,-1.31
2023-02-05T11:06:12.216Z,-1.25
2023-02-05T11:08:44.011Z,-1.57
2023-02-05T11:11:23.105Z,-1.82
2023-02-05T11:13:56.255Z,-1.76
2023-02-05T11:16:36.102Z,-1.60
2023-02-05T11:19:05.758Z,-1.36
2023-02-05T11:21:52.779Z,-1.23
2023-02-05T11:24:26.880Z,-1.02
2023-02-05T11:27:28.011Z,-1.10
2023-02-05T11:30:00.058Z,-1.39
2023-02-05T11:32:37.388Z,-1.54
2023-02-05T11:35:22.301Z,-1.62
2023-02-05T11:38:00.961Z,-1.83
2023-02-05T11:40:33.742Z,-1.87
2023-02-05T11:43:07.254Z,-1.89
2023-02-05T11:45:40.594Z,-1.88
2023-02-05T11:48:27.922Z,-1.80
2023-02-05T11:50:57.183Z,-1.81
2023-02-05T11:53:28.198Z,-1.81
2023-02-05T11:56:00.369Z,-1.82
2023-02-05T11:58:37.043Z,-1.80
2023-02-05T12:01:21.474Z,-1.85
2023-02-05T12:03:59.981Z,-1.84
2023-02-05T12:06:36.810Z,-1.77
2023-02-05T12:09:07.518Z,-1.68
2023-02-05T12:12:06.769Z,-1.67
2023-02-05T12:14:43.203Z,-1.77
2023-02-05T12:17:34.498Z,-1.93
2023-02-05T12:20:17.764Z,-2.01
2023-02-05T12:23:09.049Z,-2.06
2023-02-05T12:25:47.185Z,-2.26
2023-02-05T12:28:27.874Z,-2.31
2023-02-05T12:31:09.392Z,-2.17
2023-02-05T12:34:00.978Z,-2.18
2023-02-05T12:36:54.023Z,-2.23
2023-02-05T12:39:40.437Z,-2.30
2023-02-05T12:42:30.796Z,-2.32
2023-02-05T12:45:23.302Z,-2.43
2023-02-05T12:48:25.477Z,-2.47
2023-02-05T12:51:08.855Z,-2.40
2023-02-05T12:54:02.075Z,-2.30
2023-02-05T12:56:55.075Z,-2.36
2023-02-05T12:59:36.898Z,-2.41
2023-02-05T13:02:20.467Z,-2.45
2023-02-05T13:04:53.044Z,-2.52
2023-02-05T13:07:30.773Z,-2.55
2023-02-05T13:10:03.816Z,-2.56
2023-02-05T13:12:38.098Z,-2.54
2023-02-05T13:15:19.044Z,-2.50
2023-02-05T13:17:57.128Z,-2.55
2023-02-05T13:20:44.426Z,-2.61
2023-02-05T13:23:32.446Z,-2.61
2023-02-05T13:26:21.349Z,-2.64
2023-02-05T13:28:57.710Z,-2.66
2023-02-05T13:31:33.284Z,-2.64
2023-02-05T13:34:05.718Z,-2.70
2023-02-05T13:37:00.536Z,-2.78
2023-02-05T13:39:52.125Z,-2.79
2023-02-05T13:42:47.266Z,-2.78
2023-02-05T13:45:35.150Z,-2.86
2023-02-05T13:48:33.786Z,-2.87
2023-02-05T13:51:33.117Z,-2.92
2023-02-05T13:54:23.749Z,-2.90
2023-02-05T13:57:08.422Z,-2.93
2023-02-05T13:59:40.427Z,-2.92
2023-02-05T14:02:33.144Z,-2.96
2023-02-05T14:05:05.117Z,-3.03
2023-02-05T14:07:38.689Z,-3.05
2023-02-05T14:10:11.262Z,-3.08
2023-02-05T14:12:45.032Z,-3.13
2023-02-05T14:15:39.375Z,-3.14
2023-02-05T14:18:11.575Z,-3.13
2023-02-05T14:20:45.667Z,-3.16
2023-02-05T14:23:17.364Z,-3.14
2023-02-05T14:26:01.889Z,-3.14
2023-02-05T14:28:44.493Z,-3.12
2023-02-05T14:31:58.845Z,-3.20
2023-02-05T14:34:59.939Z,-3.27
2023-02-05T14:37:36.461Z,-3.28
2023-02-05T14:40:22.156Z,-3.34
2023-02-05T14:42:57.126Z,-3.46
2023-02-05T14:45:31.504Z,-3.52
2023-02-05T14:48:00.726Z,-3.59
2023-02-05T14:50:31.406Z,-3.66
2023-02-05T14:53:04.138Z,-3.70
2023-02-05T14:55:40.433Z,-3.72
2023-02-05T14:58:22.599Z,-3.84
2023-02-05T15:00:53.972Z,-3.88
2023-02-05T15:03:32.895Z,-3.95
2023-02-05T15:06:07.471Z,-3.92
2023-02-05T15:08:56.709Z,-4.01
2023-02-05T15:11:44.856Z,-4.06
2023-02-05T15:14:52.280Z,-4.12
2023-02-05T15:17:59.367Z,-4.10
2023-02-05T15:20:32.654Z,-4.09
2023-02-05T15:23:36.386Z,-4.06
2023-02-05T15:26:10.229Z,-4.04
2023-02-05T15:28:43.738Z,-4.09
2023-02-05T15:31:41.572Z,-4.02
2023-02-05T15:34:30.058Z,-4.05
2023-02-05T15:37:05.561Z,-4.10
2023-02-05T15:39:48.869Z,-4.07
2023-02-05T15:42:23.071Z,-4.12
2023-02-05T15:44:52.411Z,-4.10
2023-02-05T15:47:25.324Z,-4.16
2023-02-05T15:49:58.145Z,-4.14
2023-02-05T15:52:30.137Z,-4.15
2023-02-05T15:55:02.732Z,-4.11
2023-02-05T15:57:35.190Z,-4.06
2023-02-05T16:00:09.318Z,-4.07
2023-02-05T16:02:40.113Z,-4.08
2023-02-05T16:05:20.217Z,-4.12
2023-02-05T16:07:55.668Z,-4.08
2023-02-05T16:10:27.240Z,-4.03
2023-02-05T16:13:02.050Z,-4.01
2023-02-05T16:15:37.452Z,-4.05
2023-02-05T16:18:14.484Z,-4.04
2023-02-05T16:20:47.714Z,-4.08
2023-02-05T16:23:25.799Z,-4.07
2023-02-05T16:25:58.767Z,-4.07
2023-02-05T16:28:38.843Z,-4.06
2023-02-05T16:31:10.482Z,-4.06
2023-02-05T16:33:43.446Z,-4.07
2023-02-05T16:36:19.293Z,-4.08
2023-02-05T16:38:52.992Z,-4.15
2023-02-05T16:41:25.469Z,-4.14
2023-02-05T16:43:59.425Z,-4.14
2023-02-05T16:46:30.867Z,-4.06
2023-02-05T16:49:01.903Z,-4.06
2023-02-05T16:51:37.064Z,-4.04
2023-02-05T16:54:31.592Z,-4.04
2023-02-05T16:57:11.251Z,-4.05
2023-02-05T16:59:51.419Z,-4.06
2023-02-05T17:02:30.574Z,-4.04
2023-02-05T17:05:02.320Z,-4.02
2023-02-05T17:07:33.796Z,-4.01
2023-02-05T17:10:19.797Z,-3.95
2023-02-05T17:12:54.565Z,-3.96
2023-02-05T17:15:34.121Z,-3.96
2023-02-05T17:18:29.316Z,-3.94
2023-02-05T17:21:24.270Z,-3.92
2023-02-05T17:23:54.352Z,-3.92
2023-02-05T17:26:25.022Z,-3.89
2023-02-05T17:28:57.161Z,-3.86
2023-02-05T17:31:29.620Z,-3.88
2023-02-05T17:33:59.670Z,-3.88
2023-02-05T17:36:29.104Z,-3.88
2023-02-05T17:38:58.139Z,-3.87
2023-02-05T17:41:46.738Z,-3.89
2023-02-05T17:44:20.703Z,-3.91
2023-02-05T17:46:54.307Z,-3.88
2023-02-05T17:49:23.417Z,-3.88
2023-02-05T17:51:52.517Z,-3.91
2023-02-05T17:54:23.353Z,-3.91
2023-02-05T17:56:54.460Z,-3.93
2023-02-05T17:59:25.711Z,-3.86
2023-02-05T18:01:58.553Z,-3.91
2023-02-05T18:04:27.850Z,-3.84
2023-02-05T18:06:58.676Z,-3.88
2023-02-05T18:09:27.822Z,-3.95
2023-02-05T18:11:57.370Z,-3.99
2023-02-05T18:14:27.130Z,-3.98
2023-02-05T18:17:02.002Z,-3.99
2023-02-05T18:19:31.484Z,-3.97
2023-02-05T18:22:00.755Z,-3.98
2023-02-05T18:24:31.264Z,-4.02
2023-02-05T18:27:00.401Z,-3.98
2023-02-05T18:29:29.783Z,-3.97
2023-02-05T18:32:00.324Z,-3.98
2023-02-05T18:34:31.559Z,-3.90
2023-02-05T18:37:01.282Z,-3.93
2023-02-05T18:39:30.871Z,-3.89
2023-02-05T18:42:00.294Z,-3.87
2023-02-05T18:44:29.764Z,-3.96
2023-02-05T18:47:00.306Z,-3.98
2023-02-05T18:49:29.444Z,-3.85
2023-02-05T18:51:58.804Z,-3.98
2023-02-05T18:54:29.345Z,-3.97
2023-02-05T18:57:00.017Z,-4.05
2023-02-05T18:59:29.239Z,-4.06
2023-02-05T19:01:59.806Z,-4.06
2023-02-05T19:04:33.115Z,-4.06
2023-02-05T19:07:02.177Z,-4.12
2023-02-05T19:09:31.931Z,-4.18
2023-02-05T19:12:01.214Z,-4.18
2023-02-05T19:14:31.344Z,-4.18
2023-02-05T19:17:01.830Z,-4.18
2023-02-05T19:19:31.325Z,-4.17
2023-02-05T19:22:02.250Z,-4.15
2023-02-05T19:24:31.679Z,-4.21
2023-02-05T19:27:00.845Z,-4.23
2023-02-05T19:29:30.035Z,-4.14
2023-02-05T19:31:59.232Z,-4.19
2023-02-05T19:34:29.779Z,-4.18
2023-02-05T19:36:58.811Z,-4.24
2023-02-05T19:39:28.162Z,-4.18
2023-02-05T19:41:57.147Z,-4.23
2023-02-05T19:44:29.682Z,-4.26
2023-02-05T19:46:59.198Z,-4.22
2023-02-05T19:49:29.699Z,-4.20
2023-02-05T19:52:00.110Z,-4.15
2023-02-05T19:54:29.738Z,-4.12
2023-02-05T19:56:58.837Z,-4.11
2023-02-05T19:59:28.234Z,-4.10
2023-02-05T20:01:57.306Z,-4.15
2023-02-05T20:04:28.921Z,-4.18
2023-02-05T20:07:01.627Z,-4.14
2023-02-05T20:09:32.141Z,-4.11
2023-02-05T20:12:01.760Z,-4.20
2023-02-05T20:14:31.838Z,-4.22
2023-02-05T20:17:00.811Z,-4.26
2023-02-05T20:19:29.994Z,-4.33
2023-02-05T20:22:01.290Z,-4.29
2023-02-05T20:24:30.359Z,-4.29
2023-02-05T20:27:00.008Z,-4.23
2023-02-05T20:29:46.344Z,-4.25
2023-02-05T20:32:15.421Z,-4.26
2023-02-05T20:34:50.136Z,-4.33
2023-02-05T20:37:20.658Z,-4.34
2023-02-05T20:39:49.658Z,-4.30
2023-02-05T20:42:19.100Z,-4.21
2023-02-05T20:44:48.070Z,-4.28
2023-02-05T20:47:17.183Z,-4.27
2023-02-05T20:49:46.261Z,-4.26
2023-02-05T20:52:15.387Z,-4.28
2023-02-05T20:54:45.826Z,-4.30
2023-02-05T20:57:14.819Z,-4.39
2023-02-05T20:59:43.901Z,-4.38
2023-02-05T21:02:13.925Z,-4.37
2023-02-05T21:04:43.266Z,-4.39
2023-02-05T21:07:12.319Z,-4.43
2023-02-05T21:09:41.319Z,-4.48
2023-02-05T21:12:11.882Z,-4.34
2023-02-05T21:14:41.026Z,-4.44
2023-02-05T21:17:10.729Z,-4.25
2023-02-05T21:19:40.532Z,-4.34
2023-02-05T21:22:09.744Z,-4.39
2023-02-05T21:24:38.815Z,-4.43
2023-02-05T21:27:07.952Z,-4.49
2023-02-05T21:29:38.276Z,-4.55
2023-02-05T21:32:08.219Z,-4.58
2023-02-05T21:34:37.325Z,-4.54
2023-02-05T21:37:06.257Z,-4.54
2023-02-05T21:39:36.139Z,-4.55
2023-02-05T21:42:05.273Z,-4.57
2023-02-05T21:44:34.275Z,-4.49
2023-02-05T21:47:04.664Z,-4.58
2023-02-05T21:49:33.990Z,-4.61
2023-02-05T21:52:03.015Z,-4.62
2023-02-05T21:54:32.099Z,-4.59
2023-02-05T21:57:01.196Z,-4.45
2023-02-05T21:59:30.200Z,-4.47
2023-02-05T22:01:59.208Z,-4.46
2023-02-05T22:04:29.723Z,-4.50
2023-02-05T22:06:58.718Z,-4.57
2023-02-05T22:09:27.724Z,-4.65
2023-02-05T22:12:02.803Z,-4.66
2023-02-05T22:14:32.043Z,-4.47
2023-02-05T22:17:01.298Z,-4.58
2023-02-05T22:19:31.863Z,-4.53
2023-02-05T22:22:00.981Z,-4.54
2023-02-05T22:24:30.031Z,-4.57
2023-02-05T22:26:59.247Z,-4.61
2023-02-05T22:29:28.307Z,-4.67
2023-02-05T22:31:57.348Z,-4.72
2023-02-05T22:34:26.343Z,-4.67
2023-02-05T22:36:57.238Z,-4.70
2023-02-05T22:39:26.289Z,-4.67
2023-02-05T22:41:55.343Z,-4.72
2023-02-05T22:44:24.658Z,-4.66
2023-02-05T22:46:53.596Z,-4.73
2023-02-05T22:49:22.664Z,-4.75
2023-02-05T22:51:54.268Z,-4.74
2023-02-05T22:54:24.705Z,-4.80
2023-02-05T22:56:53.729Z,-4.83
2023-02-05T22:59:22.719Z,-4.84
2023-02-05T23:01:51.705Z,-4.83
2023-02-05T23:04:20.812Z,-4.87
2023-02-05T23:06:50.018Z,-4.88
2023-02-05T23:09:20.367Z,-4.88
2023-02-05T23:11:50.772Z,-4.90
2023-02-05T23:14:19.779Z,-4.90
2023-02-05T23:16:49.156Z,-4.92
2023-02-05T23:19:19.860Z,-4.88
2023-02-05T23:21:49.540Z,-4.90
2023-02-05T23:24:19.952Z,-4.90
2023-02-05T23:26:53.663Z,-4.92
2023-02-05T23:29:22.879Z,-4.94
2023-02-05T23:31:51.848Z,-4.94
2023-02-05T23:34:20.872Z,-4.92
2023-02-05T23:36:49.863Z,-4.93
2023-02-05T23:39:18.859Z,-4.93
2023-02-05T23:41:47.812Z,-4.90
2023-02-05T23:44:20.613Z,-4.95
2023-02-05T23:46:51.440Z,-4.93
2023-02-05T23:49:22.342Z,-4.95
2023-02-05T23:51:52.276Z,-4.95
2023-02-05T23:54:21.849Z,-4.94
2023-02-05T23:56:51.329Z,-4.95
2023-02-05T23:59:22.101Z,-4.96
